createdAt,value
2023-09-18T00:01:38.180Z,24.68
2023-09-18T00:04:06.119Z,24.68
2023-09-18T00:06:34.788Z,24.69
2023-09-18T00:09:02.512Z,24.67
2023-09-18T00:11:30.236Z,24.65
2023-09-18T00:13:57.753Z,24.62
2023-09-18T00:16:26.666Z,24.62
2023-09-18T00:18:54.443Z,24.61
2023-09-18T00:21:22.724Z,24.63
2023-09-18T00:23:50.359Z,24.61
2023-09-18T00:26:17.931Z,24.59
2023-09-18T00:28:50.197Z,24.58
2023-09-18T00:31:18.065Z,24.57
2023-09-18T00:33:45.533Z,24.57
2023-09-18T00:36:13.264Z,24.56
2023-09-18T00:38:40.822Z,24.57
2023-09-18T00:41:08.658Z,24.56
2023-09-18T00:43:36.570Z,24.56
2023-09-18T00:46:04.246Z,24.57
2023-09-18T00:48:31.769Z,24.56
2023-09-18T00:50:59.643Z,24.56
2023-09-18T00:53:28.653Z,24.54
2023-09-18T00:56:01.319Z,24.53
2023-09-18T00:58:29.240Z,24.49
2023-09-18T01:00:57.627Z,24.48
2023-09-18T01:03:27.295Z,24.47
2023-09-18T01:05:56.363Z,24.47
2023-09-18T01:08:24.676Z,24.45
2023-09-18T01:11:15.793Z,24.44
2023-09-18T01:14:14.191Z,24.41
2023-09-18T01:16:52.427Z,24.39
2023-09-18T01:19:37.183Z,24.36
2023-09-18T01:22:06.538Z,24.35
2023-09-18T01:24:39.481Z,24.35
2023-09-18T01:27:11.410Z,24.32
2023-09-18T01:29:38.850Z,24.32
2023-09-18T01:32:06.972Z,24.30
2023-09-18T01:34:38.360Z,24.31
2023-09-18T01:37:07.323Z,24.28
2023-09-18T01:39:39.109Z,24.26
2023-09-18T01:42:08.741Z,24.25
2023-09-18T01:44:36.440Z,24.23
2023-09-18T01:47:06.320Z,24.24
2023-09-18T01:49:39.072Z,24.22
2023-09-18T01:52:09.865Z,24.21
2023-09-18T01:54:37.901Z,24.21
2023-09-18T01:57:06.347Z,24.19
2023-09-18T01:59:34.368Z,24.17
2023-09-18T02:02:09.024Z,24.16
2023-09-18T02:05:07.123Z,24.16
2023-09-18T02:07:27.017Z,24.14
2023-09-18T02:09:54.533Z,24.12
2023-09-18T02:12:22.179Z,24.12
2023-09-18T02:14:49.711Z,24.11
2023-09-18T02:17:17.656Z,24.11
2023-09-18T02:19:45.093Z,24.11
2023-09-18T02:22:12.751Z,24.13
2023-09-18T02:24:40.405Z,24.12
2023-09-18T02:27:08.173Z,24.12
2023-09-18T02:29:35.758Z,24.10
2023-09-18T02:32:04.061Z,24.09
2023-09-18T02:34:31.785Z,24.09
2023-09-18T02:36:59.669Z,24.08
2023-09-18T02:39:27.106Z,24.06
2023-09-18T02:41:55.731Z,24.03
2023-09-18T02:44:23.213Z,24.02
2023-09-18T02:46:50.689Z,24.01
2023-09-18T02:49:18.167Z,23.99
2023-09-18T02:51:45.604Z,23.98
2023-09-18T02:54:13.076Z,23.98
2023-09-18T02:56:40.509Z,23.98
2023-09-18T02:59:08.963Z,23.96
2023-09-18T03:01:36.629Z,23.91
2023-09-18T03:04:05.591Z,23.87
2023-09-18T03:06:34.036Z,23.87
2023-09-18T03:09:04.427Z,23.88
2023-09-18T03:11:33.552Z,23.87
2023-09-18T03:14:01.735Z,23.85
2023-09-18T03:16:29.683Z,23.82
2023-09-18T03:18:57.251Z,23.80
2023-09-18T03:21:25.032Z,23.79
2023-09-18T03:23:52.945Z,23.78
2023-09-18T03:26:20.529Z,23.78
2023-09-18T03:28:48.483Z,23.77
2023-09-18T03:31:16.504Z,23.78
2023-09-18T03:33:44.425Z,23.79
2023-09-18T03:36:13.115Z,23.76
2023-09-18T03:38:40.797Z,23.75
2023-09-18T03:41:09.273Z,23.75
2023-09-18T03:43:36.801Z,23.72
2023-09-18T03:46:07.054Z,23.70
2023-09-18T03:48:41.804Z,23.67
2023-09-18T03:51:11.961Z,23.64
2023-09-18T03:53:40.928Z,23.62
2023-09-18T03:56:09.156Z,23.62
2023-09-18T03:58:37.124Z,23.59
2023-09-18T04:01:04.830Z,23.58
2023-09-18T04:03:32.869Z,23.56
2023-09-18T04:06:00.979Z,23.58
2023-09-18T04:08:28.772Z,23.55
2023-09-18T04:10:59.729Z,23.55
2023-09-18T04:13:27.686Z,23.53
2023-09-18T04:15:58.762Z,23.52
2023-09-18T04:18:27.831Z,23.49
2023-09-18T04:20:56.397Z,23.46
2023-09-18T04:23:30.426Z,23.45
2023-09-18T04:26:01.826Z,23.46
2023-09-18T04:28:30.835Z,23.46
2023-09-18T04:30:58.772Z,23.44
2023-09-18T04:33:27.769Z,23.42
2023-09-18T04:35:55.646Z,23.41
2023-09-18T04:38:23.260Z,23.39
2023-09-18T04:40:58.815Z,23.36
2023-09-18T04:43:26.528Z,23.35
2023-09-18T04:45:54.003Z,23.37
2023-09-18T04:48:21.607Z,23.34
2023-09-18T04:50:50.771Z,23.33
2023-09-18T04:53:19.086Z,23.31
2023-09-18T04:55:50.950Z,23.31
2023-09-18T04:58:19.284Z,23.28
2023-09-18T05:00:48.081Z,23.28
2023-09-18T05:03:16.417Z,23.26
2023-09-18T05:05:45.926Z,23.28
2023-09-18T05:08:13.895Z,23.27
2023-09-18T05:10:41.483Z,23.26
2023-09-18T05:13:09.698Z,23.26
2023-09-18T05:15:37.344Z,23.26
2023-09-18T05:18:05.785Z,23.26
2023-09-18T05:20:35.942Z,23.27
2023-09-18T05:23:03.924Z,23.27
2023-09-18T05:25:34.981Z,23.26
2023-09-18T05:28:02.935Z,23.26
2023-09-18T05:30:36.934Z,23.28
2023-09-18T05:33:08.033Z,23.30
2023-09-18T05:35:44.446Z,23.32
2023-09-18T05:38:15.289Z,23.32
2023-09-18T05:40:43.311Z,23.32
2023-09-18T05:43:11.654Z,23.33
2023-09-18T05:45:39.775Z,23.32
2023-09-18T05:48:07.588Z,23.35
2023-09-18T05:50:39.535Z,23.35
2023-09-18T05:53:07.600Z,23.35
2023-09-18T05:55:36.324Z,23.35
2023-09-18T05:58:06.080Z,23.35
2023-09-18T06:00:33.811Z,23.33
2023-09-18T06:03:01.885Z,23.34
2023-09-18T06:05:32.975Z,23.35
2023-09-18T06:08:01.904Z,23.35
2023-09-18T06:10:29.464Z,23.35
2023-09-18T06:12:57.077Z,23.36
2023-09-18T06:15:24.716Z,23.37
2023-09-18T06:17:52.334Z,23.37
2023-09-18T06:20:20.984Z,23.39
2023-09-18T06:22:48.343Z,23.41
2023-09-18T06:25:16.316Z,23.43
2023-09-18T06:27:43.923Z,23.46
2023-09-18T06:30:11.962Z,23.43
2023-09-18T06:32:39.525Z,23.44
2023-09-18T06:35:07.587Z,23.47
2023-09-18T06:37:35.259Z,23.50
2023-09-18T06:40:05.660Z,23.54
2023-09-18T06:42:33.970Z,23.58
2023-09-18T06:45:03.179Z,23.61
2023-09-18T06:47:32.194Z,23.64
2023-09-18T06:49:59.608Z,23.66
2023-09-18T06:52:28.309Z,23.65
2023-09-18T06:54:55.707Z,23.65
2023-09-18T06:57:23.072Z,23.68
2023-09-18T06:59:50.513Z,23.70
2023-09-18T07:02:18.449Z,23.72
2023-09-18T07:04:48.840Z,23.72
2023-09-18T07:07:17.351Z,23.74
2023-09-18T07:09:59.423Z,23.76
2023-09-18T07:12:33.050Z,23.77
2023-09-18T07:15:05.162Z,23.76
2023-09-18T07:17:33.303Z,23.77
2023-09-18T07:20:01.854Z,23.76
2023-09-18T07:22:31.117Z,23.76
2023-09-18T07:24:59.867Z,23.78
2023-09-18T07:27:27.326Z,23.79
2023-09-18T07:29:58.551Z,23.79
2023-09-18T07:32:37.554Z,23.82
2023-09-18T07:35:07.162Z,23.82
2023-09-18T07:37:34.627Z,23.83
2023-09-18T07:40:02.090Z,23.85
2023-09-18T07:42:29.677Z,23.91
2023-09-18T07:44:59.334Z,23.97
2023-09-18T07:47:27.648Z,23.98
2023-09-18T07:49:56.233Z,24.00
2023-09-18T07:52:23.686Z,24.03
2023-09-18T07:54:51.087Z,24.03
2023-09-18T07:57:18.530Z,24.06
2023-09-18T07:59:45.997Z,24.08
2023-09-18T08:02:13.807Z,24.09
2023-09-18T08:04:41.248Z,24.10
2023-09-18T08:07:09.160Z,24.13
2023-09-18T08:09:40.387Z,24.20
2023-09-18T08:12:10.242Z,24.23
2023-09-18T08:14:38.467Z,24.27
2023-09-18T08:17:09.565Z,24.31
2023-09-18T08:19:38.804Z,24.29
2023-09-18T08:22:06.340Z,24.34
2023-09-18T08:24:33.748Z,24.38
2023-09-18T08:27:01.137Z,24.40
2023-09-18T08:29:28.634Z,24.44
2023-09-18T08:31:56.193Z,24.53
2023-09-18T08:34:24.075Z,24.55
2023-09-18T08:36:52.273Z,24.57
2023-09-18T08:39:19.707Z,24.57
2023-09-18T08:41:52.472Z,24.58
2023-09-18T08:44:21.138Z,24.54
2023-09-18T08:46:48.573Z,24.53
2023-09-18T08:49:16.833Z,24.52
2023-09-18T08:51:45.691Z,24.48
2023-09-18T08:54:14.087Z,24.47
2023-09-18T08:56:41.592Z,24.46
2023-09-18T08:59:09.309Z,24.47
2023-09-18T09:01:37.141Z,24.45
2023-09-18T09:04:05.701Z,24.44
2023-09-18T09:06:33.622Z,24.43
2023-09-18T09:09:01.220Z,24.42
2023-09-18T09:11:28.782Z,24.39
2023-09-18T09:14:13.480Z,24.37
2023-09-18T09:16:42.031Z,24.39
2023-09-18T09:19:09.664Z,24.37
2023-09-18T09:21:45.472Z,24.38
2023-09-18T09:24:15.861Z,24.39
2023-09-18T09:26:44.235Z,24.36
2023-09-18T09:29:21.660Z,24.36
2023-09-18T09:31:49.544Z,24.35
2023-09-18T09:34:28.567Z,24.37
2023-09-18T09:36:57.986Z,24.39
2023-09-18T09:39:27.002Z,24.46
2023-09-18T09:41:54.639Z,24.53
2023-09-18T09:44:22.705Z,24.58
2023-09-18T09:46:51.403Z,24.67
2023-09-18T09:49:21.509Z,24.71
2023-09-18T09:51:48.935Z,24.79
2023-09-18T09:54:35.682Z,24.86
2023-09-18T09:57:06.779Z,24.96
2023-09-18T09:59:36.580Z,25.07
2023-09-18T10:02:04.622Z,25.10
2023-09-18T10:04:35.576Z,25.18
2023-09-18T10:07:10.620Z,25.30
2023-09-18T10:09:42.642Z,25.35
2023-09-18T10:12:16.592Z,25.44
2023-09-18T10:15:01.569Z,25.51
2023-09-18T10:17:31.763Z,25.63
2023-09-18T10:20:17.356Z,25.64
2023-09-18T10:22:51.168Z,25.70
2023-09-18T10:25:32.604Z,25.77
2023-09-18T10:28:02.781Z,25.86
2023-09-18T10:30:31.013Z,25.95
2023-09-18T10:33:00.612Z,25.99
2023-09-18T10:35:29.031Z,26.04
2023-09-18T10:37:56.682Z,26.11
2023-09-18T10:40:27.373Z,26.13
2023-09-18T10:42:55.775Z,26.19
2023-09-18T10:45:22.903Z,26.23
2023-09-18T10:47:52.131Z,26.27
2023-09-18T10:50:27.941Z,26.31
2023-09-18T10:52:55.169Z,26.37
2023-09-18T10:55:23.809Z,26.37
2023-09-18T10:57:53.448Z,26.45
2023-09-18T11:00:24.115Z,26.48
2023-09-18T11:03:09.969Z,26.55
2023-09-18T11:05:37.330Z,26.60
2023-09-18T11:08:37.126Z,26.55
2023-09-18T11:11:14.254Z,26.53
2023-09-18T11:13:57.089Z,26.63
2023-09-18T11:16:27.115Z,26.67
2023-09-18T11:19:18.749Z,26.77
2023-09-18T11:21:46.851Z,26.91
2023-09-18T11:24:22.660Z,26.91
2023-09-18T11:26:52.743Z,26.98
2023-09-18T11:29:24.381Z,27.03
2023-09-18T11:31:56.540Z,27.12
2023-09-18T11:34:29.564Z,27.23
2023-09-18T11:36:57.323Z,27.27
2023-09-18T11:39:39.095Z,27.31
2023-09-18T11:42:27.845Z,27.31
2023-09-18T11:44:56.187Z,27.29
2023-09-18T11:47:28.961Z,27.26
2023-09-18T11:50:00.920Z,27.25
2023-09-18T11:52:31.315Z,27.22
2023-09-18T11:55:02.092Z,27.18
2023-09-18T11:57:30.079Z,27.17
2023-09-18T12:00:01.308Z,27.15
2023-09-18T12:02:42.400Z,27.13
2023-09-18T12:05:19.609Z,27.08
2023-09-18T12:07:48.268Z,27.08
2023-09-18T12:10:22.157Z,27.02
2023-09-18T12:12:49.453Z,26.96
2023-09-18T12:15:20.622Z,26.91
2023-09-18T12:17:47.574Z,26.84
2023-09-18T12:20:21.704Z,26.80
2023-09-18T12:22:51.700Z,26.79
2023-09-18T12:25:19.871Z,26.78
2023-09-18T12:27:47.386Z,26.74
2023-09-18T12:30:21.797Z,26.71
2023-09-18T12:32:51.944Z,26.70
2023-09-18T12:35:22.489Z,26.69
2023-09-18T12:37:50.959Z,26.66
2023-09-18T12:40:27.188Z,26.69
2023-09-18T12:42:56.976Z,26.61
2023-09-18T12:45:25.684Z,26.60
2023-09-18T12:47:55.707Z,26.60
2023-09-18T12:50:23.218Z,26.60
2023-09-18T12:52:50.118Z,26.60
2023-09-18T12:55:28.365Z,26.60
2023-09-18T12:57:56.695Z,26.59
2023-09-18T13:00:27.844Z,26.59
2023-09-18T13:02:57.006Z,26.57
2023-09-18T13:05:33.504Z,26.54
2023-09-18T13:08:07.096Z,26.50
2023-09-18T13:10:48.094Z,26.50
2023-09-18T13:13:23.496Z,26.49
2023-09-18T13:15:53.229Z,26.44
2023-09-18T13:18:24.582Z,26.45
2023-09-18T13:20:52.830Z,26.46
2023-09-18T13:23:22.338Z,26.44
2023-09-18T13:25:49.740Z,26.45
2023-09-18T13:28:18.024Z,26.41
2023-09-18T13:30:44.965Z,26.39
2023-09-18T13:33:17.842Z,26.38
2023-09-18T13:35:46.808Z,26.35
2023-09-18T13:38:15.313Z,26.33
2023-09-18T13:40:45.011Z,26.26
2023-09-18T13:43:12.694Z,26.28
2023-09-18T13:45:40.508Z,26.28
2023-09-18T13:48:08.563Z,26.29
2023-09-18T13:50:37.508Z,26.29
2023-09-18T13:53:05.195Z,26.30
2023-09-18T13:55:33.657Z,26.32
2023-09-18T13:58:04.258Z,26.35
2023-09-18T14:00:32.167Z,26.40
2023-09-18T14:02:59.302Z,26.44
2023-09-18T14:05:27.954Z,26.47
2023-09-18T14:08:00.787Z,26.52
2023-09-18T14:10:28.768Z,26.53
2023-09-18T14:12:55.992Z,26.57
2023-09-18T14:15:41.615Z,26.57
2023-09-18T14:18:28.777Z,26.63
2023-09-18T14:20:58.832Z,26.67
2023-09-18T14:23:27.834Z,26.69
2023-09-18T14:25:55.576Z,26.73
2023-09-18T14:28:23.843Z,26.77
2023-09-18T14:30:51.104Z,26.85
2023-09-18T14:33:18.340Z,26.94
2023-09-18T14:35:45.515Z,27.00
2023-09-18T14:38:14.952Z,27.03
2023-09-18T14:40:43.492Z,27.07
2023-09-18T14:43:10.434Z,27.15
2023-09-18T14:45:39.182Z,27.19
2023-09-18T14:48:06.557Z,27.24
2023-09-18T14:50:34.587Z,27.30
2023-09-18T14:53:01.503Z,27.31
2023-09-18T14:55:28.389Z,27.31
2023-09-18T14:57:55.828Z,27.33
2023-09-18T15:00:22.914Z,27.35
2023-09-18T15:02:50.013Z,27.36
2023-09-18T15:05:19.118Z,27.38
2023-09-18T15:07:46.210Z,27.40
2023-09-18T15:10:13.544Z,27.43
2023-09-18T15:12:42.323Z,27.44
2023-09-18T15:15:09.720Z,27.45
2023-09-18T15:17:38.072Z,27.50
2023-09-18T15:20:07.163Z,27.52
2023-09-18T15:22:34.514Z,27.54
2023-09-18T15:25:02.510Z,27.55
2023-09-18T15:27:29.569Z,27.55
2023-09-18T15:29:56.749Z,27.56
2023-09-18T15:32:24.101Z,27.57
2023-09-18T15:34:51.343Z,27.55
2023-09-18T15:37:18.525Z,27.60
2023-09-18T15:39:45.603Z,27.62
2023-09-18T15:42:12.436Z,27.63
2023-09-18T15:44:39.480Z,27.65
2023-09-18T15:47:07.293Z,27.67
2023-09-18T15:49:34.392Z,27.65
2023-09-18T15:52:01.250Z,27.67
2023-09-18T15:54:28.287Z,27.67
2023-09-18T15:56:56.410Z,27.65
2023-09-18T15:59:23.502Z,27.64
2023-09-18T16:01:50.531Z,27.62
2023-09-18T16:04:17.657Z,27.61
2023-09-18T16:06:45.260Z,27.57
2023-09-18T16:09:15.378Z,27.59
2023-09-18T16:11:47.972Z,27.56
2023-09-18T16:14:16.141Z,27.53
2023-09-18T16:16:43.658Z,27.48
2023-09-18T16:19:10.838Z,27.47
2023-09-18T16:21:37.913Z,27.45
2023-09-18T16:24:08.027Z,27.41
2023-09-18T16:26:34.974Z,27.41
2023-09-18T16:29:01.883Z,27.40
2023-09-18T16:31:30.449Z,27.40
2023-09-18T16:33:57.560Z,27.37
2023-09-18T16:36:24.768Z,27.35
2023-09-18T16:38:51.865Z,27.30
2023-09-18T16:41:19.470Z,27.30
2023-09-18T16:43:46.304Z,27.28
2023-09-18T16:46:13.217Z,27.27
2023-09-18T16:48:40.230Z,27.26
2023-09-18T16:51:09.996Z,27.30
2023-09-18T16:53:37.116Z,27.28
2023-09-18T16:56:04.504Z,27.27
2023-09-18T16:58:31.343Z,27.27
2023-09-18T17:00:59.509Z,27.27
2023-09-18T17:03:26.683Z,27.26
2023-09-18T17:05:53.843Z,27.24
2023-09-18T17:08:21.075Z,27.24
2023-09-18T17:10:48.843Z,27.22
2023-09-18T17:13:15.978Z,27.20
2023-09-18T17:15:42.907Z,27.20
2023-09-18T17:18:11.604Z,27.16
2023-09-18T17:20:39.114Z,27.13
2023-09-18T17:23:06.429Z,27.09
2023-09-18T17:25:34.274Z,27.07
2023-09-18T17:28:05.283Z,27.05
2023-09-18T17:30:32.677Z,27.03
2023-09-18T17:32:59.725Z,27.01
2023-09-18T17:35:26.642Z,26.99
2023-09-18T17:37:53.731Z,26.94
2023-09-18T17:40:20.731Z,26.94
2023-09-18T17:42:48.114Z,26.92
2023-09-18T17:45:15.136Z,26.88
2023-09-18T17:47:42.047Z,26.89
2023-09-18T17:50:09.733Z,26.86
2023-09-18T17:52:37.777Z,26.86
2023-09-18T17:55:06.532Z,26.85
2023-09-18T17:57:36.311Z,26.81
2023-09-18T18:00:12.723Z,26.81
2023-09-18T18:02:40.425Z,26.82
2023-09-18T18:05:08.468Z,26.82
2023-09-18T18:07:35.866Z,26.78
2023-09-18T18:10:02.806Z,26.77
2023-09-18T18:12:29.691Z,26.74
2023-09-18T18:14:56.677Z,26.73
2023-09-18T18:17:23.649Z,26.73
2023-09-18T18:19:51.183Z,26.71
2023-09-18T18:22:18.094Z,26.68
2023-09-18T18:24:45.001Z,26.63
2023-09-18T18:27:11.872Z,26.61
2023-09-18T18:29:39.985Z,26.57
2023-09-18T18:32:08.582Z,26.50
2023-09-18T18:34:36.331Z,26.52
2023-09-18T18:37:03.414Z,26.53
2023-09-18T18:39:30.982Z,26.49
2023-09-18T18:41:57.832Z,26.45
2023-09-18T18:44:24.727Z,26.43
2023-09-18T18:46:51.849Z,26.41
2023-09-18T18:49:18.677Z,26.38
2023-09-18T18:51:45.597Z,26.38
2023-09-18T18:54:12.620Z,26.37
2023-09-18T18:56:39.451Z,26.24
2023-09-18T18:59:07.246Z,26.23
2023-09-18T19:01:36.108Z,26.21
2023-09-18T19:04:03.819Z,26.18
2023-09-18T19:06:30.853Z,26.14
2023-09-18T19:08:59.914Z,26.09
2023-09-18T19:11:27.546Z,26.06
2023-09-18T19:13:54.689Z,26.04
2023-09-18T19:16:21.928Z,26.00
2023-09-18T19:18:49.260Z,25.94
2023-09-18T19:21:17.351Z,25.85
2023-09-18T19:23:45.050Z,25.79
2023-09-18T19:26:12.469Z,25.77
2023-09-18T19:28:40.636Z,25.73
2023-09-18T19:31:09.577Z,25.72
2023-09-18T19:33:40.299Z,25.66
2023-09-18T19:36:08.224Z,25.62
2023-09-18T19:38:38.650Z,25.60
2023-09-18T19:41:09.107Z,25.57
2023-09-18T19:43:36.240Z,25.53
2023-09-18T19:46:03.837Z,25.49
2023-09-18T19:48:32.516Z,25.46
2023-09-18T19:51:02.271Z,25.42
2023-09-18T19:53:30.115Z,25.39
2023-09-18T19:55:57.215Z,25.36
2023-09-18T19:58:24.859Z,25.33
2023-09-18T20:00:56.110Z,25.29
2023-09-18T20:03:24.257Z,25.27
2023-09-18T20:05:54.496Z,25.25
2023-09-18T20:08:21.373Z,25.24
2023-09-18T20:10:48.346Z,25.22
2023-09-18T20:13:15.148Z,25.16
2023-09-18T20:15:42.516Z,25.13
2023-09-18T20:18:09.438Z,25.07
2023-09-18T20:20:36.407Z,25.06
2023-09-18T20:23:03.985Z,25.03
2023-09-18T20:25:30.933Z,25.00
2023-09-18T20:27:57.821Z,24.95
2023-09-18T20:30:25.595Z,24.92
2023-09-18T20:32:52.858Z,24.89
2023-09-18T20:35:19.879Z,24.87
2023-09-18T20:37:46.748Z,24.82
2023-09-18T20:40:14.002Z,24.79
2023-09-18T20:42:40.992Z,24.75
2023-09-18T20:45:08.346Z,24.73
2023-09-18T20:47:38.769Z,24.65
2023-09-18T20:50:07.817Z,24.60
2023-09-18T20:52:37.665Z,24.56
2023-09-18T20:55:07.793Z,24.54
2023-09-18T20:57:34.661Z,24.50
2023-09-18T21:00:01.610Z,24.47
2023-09-18T21:02:28.659Z,24.44
2023-09-18T21:04:55.522Z,24.42
2023-09-18T21:07:22.660Z,24.40
2023-09-18T21:09:51.083Z,24.40
2023-09-18T21:12:23.125Z,24.39
2023-09-18T21:14:50.274Z,24.36
2023-09-18T21:17:17.725Z,24.35
2023-09-18T21:19:44.825Z,24.34
2023-09-18T21:22:12.208Z,24.35
2023-09-18T21:24:39.803Z,24.34
2023-09-18T21:27:07.641Z,24.31
2023-09-18T21:29:34.589Z,24.30
2023-09-18T21:32:04.539Z,24.24
2023-09-18T21:34:34.366Z,24.23
2023-09-18T21:37:01.254Z,24.19
2023-09-18T21:39:28.079Z,24.18
2023-09-18T21:41:54.905Z,24.18
2023-09-18T21:44:21.737Z,24.16
2023-09-18T21:46:48.600Z,24.16
2023-09-18T21:49:15.700Z,24.13
2023-09-18T21:51:42.772Z,24.10
2023-09-18T21:54:12.851Z,24.10
2023-09-18T21:56:39.996Z,24.10
2023-09-18T21:59:07.080Z,24.09
2023-09-18T22:01:36.063Z,24.07
2023-09-18T22:04:07.831Z,24.04
2023-09-18T22:06:35.143Z,24.01
2023-09-18T22:09:02.182Z,24.00
2023-09-18T22:11:31.036Z,23.99
2023-09-18T22:13:58.006Z,23.96
2023-09-18T22:16:24.794Z,23.91
2023-09-18T22:18:51.906Z,23.85
2023-09-18T22:21:19.902Z,23.82
2023-09-18T22:23:47.259Z,23.81
2023-09-18T22:26:14.281Z,23.78
2023-09-18T22:28:41.552Z,23.79
2023-09-18T22:33:47.817Z,23.81
2023-09-18T22:36:26.570Z,23.80
2023-09-18T22:39:11.434Z,23.77
2023-09-18T22:41:40.068Z,23.74
2023-09-18T22:45:03.611Z,23.72
2023-09-18T22:48:27.673Z,23.68
2023-09-18T22:51:51.219Z,23.67
2023-09-18T22:54:19.392Z,23.64
2023-09-18T22:56:48.174Z,23.63
2023-09-18T22:59:15.111Z,23.63
2023-09-18T23:01:42.572Z,23.61
2023-09-18T23:04:14.785Z,23.56
2023-09-18T23:06:43.892Z,23.53
2023-09-18T23:09:17.363Z,23.48
2023-09-18T23:11:44.741Z,23.46
2023-09-18T23:14:11.854Z,23.43
2023-09-18T23:16:39.295Z,23.39
2023-09-18T23:19:06.481Z,23.40
2023-09-18T23:21:33.542Z,23.40
2023-09-18T23:24:00.499Z,23.39
2023-09-18T23:26:30.150Z,23.38
2023-09-18T23:28:56.992Z,23.36
2023-09-18T23:31:23.897Z,23.31
2023-09-18T23:33:50.899Z,23.29
2023-09-18T23:36:18.128Z,23.26
2023-09-18T23:38:48.369Z,23.20
2023-09-18T23:41:15.829Z,23.17
2023-09-18T23:43:45.390Z,23.13
2023-09-18T23:46:15.448Z,23.12
2023-09-18T23:48:46.902Z,23.14
2023-09-18T23:51:15.127Z,23.16
2023-09-18T23:53:42.531Z,23.16
2023-09-18T23:56:13.946Z,23.13
2023-09-18T23:58:44.396Z,23.10
